Time;durP1;ratioP1;P1;durP2;ratioP2;P2;SDS_P1;SDS_P2;PMS_P1;PMS_P2;Temp;Humidity;BMP_temperature;BMP_pressure;BME280_temperature;BME280_humidity;BME280_pressure;Samples;Min_cycle;Max_cycle;Signal;HPM_P1;HPM_P2
2023/12/24 00:01:22;;;;;;;11.85;5.45;;;9.20;99.90;;;;;;5037794;28;20045;-68
2023/12/24 00:03:47;;;;;;;12.15;5.65;;;9.20;99.90;;;;;;5046661;28;20488;-68
2023/12/24 00:06:13;;;;;;;11.25;5.50;;;9.20;99.90;;;;;;5045611;28;20041;-68
2023/12/24 00:08:39;;;;;;;15.70;6.22;;;9.10;99.90;;;;;;5044053;28;20052;-68
2023/12/24 00:11:05;;;;;;;15.05;6.28;;;9.20;99.90;;;;;;5046730;28;20051;-68
2023/12/24 00:13:31;;;;;;;12.30;5.90;;;9.20;99.90;;;;;;5043808;28;20059;-68
2023/12/24 00:16:00;;;;;;;11.10;6.15;;;9.10;99.90;;;;;;5042349;28;20085;-68
2023/12/24 00:18:26;;;;;;;13.05;6.20;;;9.20;99.90;;;;;;5043787;28;20102;-68
2023/12/24 00:20:51;;;;;;;14.10;6.60;;;9.20;99.90;;;;;;5046056;28;20044;-68
2023/12/24 00:23:17;;;;;;;15.20;6.22;;;9.20;99.90;;;;;;5042339;28;20054;-68
2023/12/24 00:25:42;;;;;;;18.08;6.45;;;9.20;99.90;;;;;;5046341;28;20122;-68
2023/12/24 00:28:08;;;;;;;14.57;5.82;;;9.20;99.90;;;;;;5045708;28;20025;-68
2023/12/24 00:30:35;;;;;;;14.73;6.28;;;9.20;99.90;;;;;;5043631;28;20087;-68
2023/12/24 00:33:00;;;;;;;10.15;3.53;;;9.20;99.90;;;;;;5043819;28;20043;-68
2023/12/24 00:35:26;;;;;;;9.68;3.85;;;9.20;99.90;;;;;;5040497;28;20037;-68
2023/12/24 00:37:52;;;;;;;13.50;5.45;;;9.20;99.90;;;;;;5045104;28;20575;-68
2023/12/24 00:40:19;;;;;;;13.30;5.30;;;9.20;99.90;;;;;;5046620;28;20041;-69
2023/12/24 00:42:45;;;;;;;15.32;5.68;;;9.30;99.90;;;;;;5039399;28;20052;-69
2023/12/24 00:45:13;;;;;;;12.77;5.57;;;9.30;99.90;;;;;;5046927;28;20045;-69
2023/12/24 00:47:39;;;;;;;14.80;5.35;;;9.20;99.90;;;;;;5047133;28;20033;-69
2023/12/24 00:50:06;;;;;;;17.20;6.35;;;9.20;99.90;;;;;;5045433;28;20513;-69
2023/12/24 00:52:33;;;;;;;14.40;5.50;;;9.20;99.90;;;;;;5033001;28;20037;-69
2023/12/24 00:54:58;;;;;;;14.05;5.72;;;9.30;99.90;;;;;;5039323;28;20063;-69
2023/12/24 00:57:24;;;;;;;15.20;5.57;;;9.30;99.90;;;;;;5046524;28;20384;-69
2023/12/24 00:59:50;;;;;;;14.52;5.30;;;9.20;99.90;;;;;;5042321;28;20037;-68
2023/12/24 01:02:15;;;;;;;16.95;5.90;;;9.30;99.90;;;;;;5043645;28;20067;-68
2023/12/24 01:04:41;;;;;;;16.27;5.70;;;9.20;99.90;;;;;;5044379;28;20072;-68
2023/12/24 01:07:06;;;;;;;15.13;5.43;;;9.20;99.90;;;;;;5047653;28;20036;-68
2023/12/24 01:09:32;;;;;;;16.88;5.63;;;9.20;99.90;;;;;;5047215;28;20060;-68
2023/12/24 01:11:58;;;;;;;14.35;5.03;;;9.20;99.90;;;;;;5043098;28;20036;-68
2023/12/24 01:14:23;;;;;;;15.25;5.60;;;9.20;99.90;;;;;;5045182;28;20056;-69
2023/12/24 01:16:49;;;;;;;15.75;5.00;;;9.20;99.90;;;;;;5046078;28;20070;-68
2023/12/24 01:19:14;;;;;;;17.38;5.43;;;9.30;99.90;;;;;;5044955;28;20045;-69
2023/12/24 01:21:40;;;;;;;12.95;5.05;;;9.20;99.90;;;;;;5045286;28;20048;-68
2023/12/24 01:24:06;;;;;;;12.27;5.63;;;9.30;99.90;;;;;;5046464;28;20053;-68
2023/12/24 01:26:34;;;;;;;15.25;5.35;;;9.30;99.90;;;;;;5044501;28;20037;-68
2023/12/24 01:29:00;;;;;;;15.40;5.85;;;9.30;99.90;;;;;;5049364;28;20136;-68
2023/12/24 01:31:27;;;;;;;16.30;5.45;;;9.30;99.90;;;;;;5050135;28;20481;-68
2023/12/24 01:33:53;;;;;;;15.17;5.73;;;9.30;99.90;;;;;;5044889;28;20148;-68
2023/12/24 01:36:19;;;;;;;12.15;4.75;;;9.30;99.90;;;;;;5049720;28;20333;-68
2023/12/24 01:38:45;;;;;;;8.65;2.65;;;9.30;99.90;;;;;;5055595;28;20056;-68
2023/12/24 01:41:12;;;;;;;16.85;5.53;;;9.20;99.90;;;;;;5040697;28;20611;-68
2023/12/24 01:43:41;;;;;;;17.10;6.10;;;9.20;99.90;;;;;;5047866;28;20057;-68
2023/12/24 01:46:12;;;;;;;14.48;5.15;;;9.30;99.90;;;;;;5047317;28;20083;-68
2023/12/24 01:48:39;;;;;;;19.15;5.57;;;9.30;99.90;;;;;;5047528;28;20048;-69
2023/12/24 01:51:05;;;;;;;14.10;5.28;;;9.30;99.90;;;;;;5046295;28;20508;-68
2023/12/24 01:53:31;;;;;;;14.05;4.95;;;9.30;99.90;;;;;;5048757;28;20138;-69
2023/12/24 01:56:07;;;;;;;14.77;5.40;;;9.30;99.90;;;;;;5038974;28;20494;-69
2023/12/24 01:58:32;;;;;;;14.13;4.82;;;9.20;99.90;;;;;;5047480;28;20539;-69
2023/12/24 02:00:58;;;;;;;12.80;4.72;;;9.30;99.90;;;;;;5048470;28;20151;-68
2023/12/24 02:03:24;;;;;;;13.40;4.63;;;9.30;99.90;;;;;;5048956;28;20053;-68
2023/12/24 02:05:50;;;;;;;11.02;4.43;;;9.20;99.90;;;;;;5041871;28;20094;-69
2023/12/24 02:08:21;;;;;;;12.18;4.82;;;9.40;99.90;;;;;;5046786;28;20052;-69
2023/12/24 02:10:50;;;;;;;13.13;4.53;;;9.30;99.90;;;;;;5048103;28;20057;-68
2023/12/24 02:13:17;;;;;;;12.32;4.70;;;9.30;99.90;;;;;;5064878;28;20067;-69
2023/12/24 02:15:45;;;;;;;13.38;4.47;;;9.30;99.90;;;;;;5049093;28;20048;-68
2023/12/24 02:18:11;;;;;;;13.10;4.90;;;9.30;99.90;;;;;;5049173;28;20138;-68
2023/12/24 02:20:38;;;;;;;10.88;4.90;;;9.30;99.90;;;;;;5048527;28;20042;-68
2023/12/24 02:23:04;;;;;;;12.50;4.80;;;9.30;99.90;;;;;;5048933;28;20056;-68
2023/12/24 02:25:31;;;;;;;14.63;5.03;;;9.30;99.90;;;;;;5045488;28;20048;-69
2023/12/24 02:28:09;;;;;;;12.68;4.45;;;9.30;99.90;;;;;;5047904;28;20114;-68
2023/12/24 02:30:44;;;;;;;3.97;2.40;;;9.30;99.90;;;;;;5047766;28;20044;-67
2023/12/24 02:33:12;;;;;;;8.48;3.05;;;9.20;99.90;;;;;;5048185;28;20044;-68
2023/12/24 02:35:39;;;;;;;10.55;4.32;;;9.20;99.90;;;;;;5043688;28;20040;-68
2023/12/24 02:38:05;;;;;;;10.43;4.20;;;9.20;99.90;;;;;;5048493;28;20120;-68
2023/12/24 02:40:31;;;;;;;9.85;3.97;;;9.20;99.90;;;;;;5051359;28;20127;-68
2023/12/24 02:42:56;;;;;;;8.63;4.53;;;9.20;99.90;;;;;;5045729;28;20053;-68
2023/12/24 02:45:22;;;;;;;9.70;4.13;;;9.20;99.90;;;;;;5049931;28;20045;-68
2023/12/24 02:47:48;;;;;;;10.55;4.68;;;9.20;99.90;;;;;;5048757;28;20044;-68
2023/12/24 02:50:16;;;;;;;8.48;4.82;;;9.20;99.90;;;;;;5044610;28;20136;-68
2023/12/24 02:52:42;;;;;;;7.43;4.50;;;9.20;99.90;;;;;;5046598;28;21514;-68
2023/12/24 02:55:07;;;;;;;8.82;4.75;;;9.20;99.90;;;;;;5047480;28;20041;-68
2023/12/24 02:57:33;;;;;;;6.50;4.03;;;9.20;99.90;;;;;;5047809;28;20036;-68
2023/12/24 02:59:59;;;;;;;6.80;4.07;;;9.20;99.90;;;;;;5043049;28;20045;-68
2023/12/24 03:02:24;;;;;;;7.07;3.90;;;9.20;99.90;;;;;;5043602;28;20061;-67
2023/12/24 03:04:50;;;;;;;6.70;3.70;;;9.10;99.90;;;;;;5046339;28;20057;-68
2023/12/24 03:07:15;;;;;;;8.88;4.18;;;9.10;99.90;;;;;;5048111;28;20163;-67
2023/12/24 03:09:41;;;;;;;8.65;4.10;;;9.20;99.90;;;;;;5049137;28;20045;-68
2023/12/24 03:12:07;;;;;;;9.55;4.70;;;9.30;99.90;;;;;;5048537;28;20041;-68
2023/12/24 03:14:32;;;;;;;7.57;4.47;;;9.20;99.90;;;;;;5041904;28;20115;-68
2023/12/24 03:16:58;;;;;;;9.02;4.35;;;9.20;99.90;;;;;;5046330;28;20144;-68
2023/12/24 03:19:24;;;;;;;8.43;4.55;;;9.20;99.90;;;;;;5047125;28;20102;-68
2023/12/24 03:21:49;;;;;;;8.48;4.70;;;9.20;99.90;;;;;;5044717;28;20071;-68
2023/12/24 03:24:15;;;;;;;8.40;4.45;;;9.20;99.90;;;;;;5047300;28;20044;-68
2023/12/24 03:26:40;;;;;;;8.82;4.40;;;9.20;99.90;;;;;;5045856;28;20631;-68
2023/12/24 03:29:07;;;;;;;9.15;4.75;;;9.20;99.90;;;;;;5048653;28;20041;-68
2023/12/24 03:31:33;;;;;;;8.60;4.63;;;9.20;99.90;;;;;;5047838;28;20668;-68
2023/12/24 03:33:58;;;;;;;11.20;4.40;;;9.20;99.90;;;;;;5043645;28;20037;-68
2023/12/24 03:36:24;;;;;;;6.57;4.28;;;9.30;99.90;;;;;;5046252;28;20551;-68
2023/12/24 03:38:49;;;;;;;10.40;4.45;;;9.30;99.90;;;;;;5043831;28;20074;-68
2023/12/24 03:41:15;;;;;;;9.30;4.75;;;9.30;99.90;;;;;;5050849;28;20094;-68
2023/12/24 03:43:41;;;;;;;7.18;4.25;;;9.30;99.90;;;;;;5048207;28;20583;-68
2023/12/24 03:46:06;;;;;;;5.63;3.85;;;9.20;99.90;;;;;;5048164;28;20040;-68
2023/12/24 03:48:35;;;;;;;7.80;4.30;;;9.30;99.90;;;;;;5047377;28;20099;-68
2023/12/24 03:51:01;;;;;;;7.85;4.50;;;9.40;99.90;;;;;;5044705;28;20064;-68
2023/12/24 03:53:26;;;;;;;7.68;4.47;;;9.20;99.90;;;;;;5044587;28;20072;-68
2023/12/24 03:55:52;;;;;;;8.82;4.63;;;9.30;99.90;;;;;;5044844;28;20060;-68
2023/12/24 03:58:17;;;;;;;8.35;4.13;;;9.30;99.90;;;;;;5046401;28;20119;-68
2023/12/24 04:00:43;;;;;;;7.25;4.20;;;9.30;99.90;;;;;;5044524;28;20511;-68
2023/12/24 04:03:09;;;;;;;7.90;4.45;;;9.30;99.90;;;;;;5047387;28;20037;-68
2023/12/24 04:05:34;;;;;;;10.10;4.60;;;9.30;99.90;;;;;;5047980;28;20080;-68
2023/12/24 04:08:00;;;;;;;8.98;4.45;;;9.30;99.90;;;;;;5046345;28;21709;-68
2023/12/24 04:10:25;;;;;;;5.95;3.70;;;9.30;99.90;;;;;;5045904;28;20055;-68
2023/12/24 04:12:51;;;;;;;7.18;3.80;;;9.40;99.90;;;;;;5044479;28;20063;-68
2023/12/24 04:15:17;;;;;;;6.53;3.50;;;9.40;99.90;;;;;;5047385;28;20428;-68
2023/12/24 04:17:42;;;;;;;5.90;3.60;;;9.40;99.90;;;;;;5045848;28;20484;-68
2023/12/24 04:20:14;;;;;;;7.53;3.53;;;9.40;99.90;;;;;;5042995;28;20070;-68
2023/12/24 04:22:40;;;;;;;6.32;4.05;;;9.40;99.90;;;;;;5072434;28;20132;-68
2023/12/24 04:25:05;;;;;;;6.07;3.65;;;9.40;99.90;;;;;;5044011;28;20149;-68
2023/12/24 04:27:31;;;;;;;9.07;4.05;;;9.40;99.90;;;;;;5046095;28;20048;-68
2023/12/24 04:29:57;;;;;;;5.57;3.70;;;9.40;99.90;;;;;;5047514;28;20047;-68
2023/12/24 04:32:22;;;;;;;7.13;3.80;;;9.40;99.90;;;;;;5039983;28;20679;-68
2023/12/24 04:34:48;;;;;;;7.28;3.40;;;9.50;99.90;;;;;;5043117;28;20037;-68
2023/12/24 04:37:14;;;;;;;2.95;1.67;;;9.40;99.90;;;;;;5045269;28;20037;-68
2023/12/24 04:39:39;;;;;;;3.95;3.05;;;9.40;99.90;;;;;;5044898;28;20428;-68
2023/12/24 04:42:05;;;;;;;6.18;3.05;;;9.40;99.90;;;;;;5046612;28;20042;-68
2023/12/24 04:44:30;;;;;;;4.00;2.50;;;9.50;99.90;;;;;;5046236;28;20037;-68
2023/12/24 04:46:56;;;;;;;5.13;2.72;;;9.40;99.90;;;;;;5048106;28;20052;-68
2023/12/24 04:49:22;;;;;;;5.15;2.83;;;9.50;99.90;;;;;;5044160;28;20404;-68
2023/12/24 04:51:47;;;;;;;3.05;2.38;;;9.50;99.90;;;;;;5040687;28;20168;-68
2023/12/24 04:54:13;;;;;;;3.42;2.50;;;9.50;99.90;;;;;;5047558;28;20378;-68
2023/12/24 04:56:38;;;;;;;3.20;2.35;;;9.50;99.90;;;;;;5046607;28;20385;-67
2023/12/24 04:59:04;;;;;;;2.88;2.20;;;9.50;99.90;;;;;;5045694;28;20463;-67
2023/12/24 05:01:30;;;;;;;3.53;2.08;;;9.50;99.90;;;;;;5045417;28;20059;-68
2023/12/24 05:03:56;;;;;;;3.00;1.80;;;9.60;99.90;;;;;;5043767;28;20041;-68
2023/12/24 05:06:21;;;;;;;3.42;2.00;;;9.60;99.90;;;;;;5045105;28;20045;-68
2023/12/24 05:08:47;;;;;;;4.47;2.22;;;9.60;99.90;;;;;;5043182;28;20380;-68
2023/12/24 05:11:13;;;;;;;2.83;1.92;;;9.60;99.90;;;;;;5045911;28;20056;-68
2023/12/24 05:13:39;;;;;;;3.70;1.90;;;9.60;99.90;;;;;;5046329;28;20045;-68
2023/12/24 05:16:05;;;;;;;2.97;2.00;;;9.60;99.90;;;;;;5047195;28;20041;-68
2023/12/24 05:18:33;;;;;;;2.97;2.00;;;9.60;99.90;;;;;;5038188;28;20069;-68
2023/12/24 05:20:58;;;;;;;;;;;9.60;99.90;;;;;;5047565;28;20049;-68
2023/12/24 05:23:25;;;;;;;2.67;1.90;;;9.60;99.90;;;;;;5045363;28;20497;-68
2023/12/24 05:25:51;;;;;;;2.22;1.95;;;9.60;99.90;;;;;;5047243;28;20450;-68
2023/12/24 05:28:17;;;;;;;2.58;1.80;;;9.60;99.90;;;;;;5033430;28;20049;-68
2023/12/24 05:30:43;;;;;;;3.20;1.85;;;9.60;99.90;;;;;;5045586;28;20045;-68
2023/12/24 05:33:09;;;;;;;2.63;1.80;;;9.60;99.90;;;;;;5043526;28;20091;-68
2023/12/24 05:35:35;;;;;;;2.40;1.77;;;9.60;99.90;;;;;;5043894;28;20407;-68
2023/12/24 05:38:00;;;;;;;1.55;0.95;;;9.70;99.90;;;;;;5047656;28;20033;-68
2023/12/24 05:40:26;;;;;;;1.80;1.60;;;9.70;99.90;;;;;;5042237;28;20082;-68
2023/12/24 05:42:51;;;;;;;2.85;1.90;;;9.70;99.90;;;;;;5043936;28;20059;-68
2023/12/24 05:45:17;;;;;;;2.25;1.60;;;9.70;99.90;;;;;;5047091;28;20171;-68
2023/12/24 05:47:43;;;;;;;2.00;1.80;;;9.70;99.90;;;;;;5043580;28;20044;-68
2023/12/24 05:50:09;;;;;;;2.30;2.10;;;9.70;99.90;;;;;;5046538;28;20133;-68
2023/12/24 05:52:35;;;;;;;3.22;2.28;;;9.80;99.90;;;;;;5041358;28;20050;-68
2023/12/24 05:55:01;;;;;;;2.33;2.10;;;9.80;99.90;;;;;;5047508;28;20040;-68
2023/12/24 05:57:27;;;;;;;4.45;2.40;;;9.80;99.90;;;;;;5044407;28;20053;-68
2023/12/24 05:59:53;;;;;;;2.40;2.20;;;9.80;99.90;;;;;;5046077;28;20037;-68
2023/12/24 06:02:19;;;;;;;3.33;2.28;;;9.80;99.90;;;;;;5040826;28;20060;-68
2023/12/24 06:04:44;;;;;;;2.53;2.30;;;9.80;99.90;;;;;;5043918;28;20393;-68
2023/12/24 06:07:10;;;;;;;3.55;2.55;;;9.80;99.90;;;;;;5043731;28;20041;-68
2023/12/24 06:09:36;;;;;;;3.22;2.60;;;9.80;99.90;;;;;;5045578;28;20095;-68
2023/12/24 06:12:02;;;;;;;3.80;2.70;;;9.90;99.90;;;;;;5044094;28;20057;-68
2023/12/24 06:14:28;;;;;;;3.10;2.80;;;9.90;99.90;;;;;;5048919;28;20049;-68
2023/12/24 06:16:54;;;;;;;2.60;2.40;;;9.90;99.90;;;;;;5049073;28;20534;-68
2023/12/24 06:19:19;;;;;;;3.00;2.70;;;9.90;99.90;;;;;;5050218;28;20128;-68
2023/12/24 06:21:45;;;;;;;1.98;1.38;;;9.90;99.90;;;;;;5044317;28;20053;-68
2023/12/24 06:24:10;;;;;;;3.00;2.70;;;9.90;99.90;;;;;;5049299;28;20128;-68
2023/12/24 06:26:36;;;;;;;3.63;2.90;;;9.90;99.90;;;;;;5049745;28;20607;-68
2023/12/24 06:29:02;;;;;;;3.13;2.75;;;9.90;99.90;;;;;;5041862;28;20092;-68
2023/12/24 06:31:28;;;;;;;3.08;2.78;;;9.90;99.90;;;;;;5043725;28;20072;-68
2023/12/24 06:33:54;;;;;;;3.92;3.20;;;9.90;99.90;;;;;;5046650;28;20057;-68
2023/12/24 06:36:19;;;;;;;4.28;3.40;;;10.00;99.90;;;;;;5047223;28;20041;-68
2023/12/24 06:38:45;;;;;;;3.63;3.25;;;10.00;99.90;;;;;;5052537;28;20288;-68
2023/12/24 06:41:11;;;;;;;4.13;3.60;;;10.00;99.90;;;;;;5045491;28;20044;-68
2023/12/24 06:43:38;;;;;;;4.50;3.72;;;10.00;99.90;;;;;;5072933;28;20040;-68
2023/12/24 06:46:06;;;;;;;4.95;3.72;;;10.10;99.90;;;;;;5045664;28;20784;-68
2023/12/24 06:48:33;;;;;;;7.03;4.15;;;10.10;99.90;;;;;;5049032;28;20163;-68
2023/12/24 06:50:58;;;;;;;6.55;4.40;;;10.10;99.90;;;;;;5045197;28;20039;-68
2023/12/24 06:53:25;;;;;;;6.28;4.47;;;10.00;99.90;;;;;;5044078;28;20476;-68
2023/12/24 06:55:50;;;;;;;7.27;4.93;;;10.10;99.90;;;;;;5038304;28;20077;-68
2023/12/24 06:58:16;;;;;;;7.95;4.75;;;10.00;99.90;;;;;;5043353;28;20606;-68
2023/12/24 07:00:42;;;;;;;9.70;5.40;;;10.10;99.90;;;;;;5043258;28;20494;-68
2023/12/24 07:03:07;;;;;;;8.43;5.40;;;10.10;99.90;;;;;;5046502;28;20037;-68
2023/12/24 07:05:35;;;;;;;8.10;5.30;;;10.10;99.90;;;;;;5050337;28;20484;-68
2023/12/24 07:08:01;;;;;;;;;;;10.20;99.90;;;;;;5042340;28;20052;-68
2023/12/24 07:10:27;;;;;;;7.85;5.32;;;10.20;99.90;;;;;;5043169;28;20376;-68
2023/12/24 07:12:53;;;;;;;9.68;6.20;;;10.20;99.90;;;;;;5046414;28;20088;-68
2023/12/24 07:15:19;;;;;;;10.07;6.20;;;10.20;99.90;;;;;;5049589;28;20087;-68
2023/12/24 07:17:44;;;;;;;11.38;7.00;;;10.20;99.90;;;;;;5047833;28;20045;-69
2023/12/24 07:20:11;;;;;;;11.30;6.97;;;10.20;99.90;;;;;;5037163;28;20054;-68
2023/12/24 07:22:37;;;;;;;13.45;7.93;;;10.20;99.90;;;;;;5038165;28;20052;-68
2023/12/24 07:25:03;;;;;;;15.95;7.90;;;10.30;99.90;;;;;;5044752;28;20480;-68
2023/12/24 07:27:29;;;;;;;13.73;7.38;;;10.30;99.90;;;;;;5048869;28;20033;-68
2023/12/24 07:29:56;;;;;;;12.43;7.90;;;10.30;99.90;;;;;;5051610;28;20102;-68
2023/12/24 07:32:21;;;;;;;13.50;7.80;;;10.30;99.90;;;;;;5058049;28;20055;-68
2023/12/24 07:34:47;;;;;;;14.38;8.02;;;10.30;99.90;;;;;;5050236;28;20041;-68
2023/12/24 07:37:13;;;;;;;14.40;8.75;;;10.40;99.90;;;;;;5044125;28;20037;-70
2023/12/24 07:39:39;;;;;;;17.47;8.20;;;10.40;99.90;;;;;;5049676;28;20136;-69
2023/12/24 07:42:05;;;;;;;12.80;7.57;;;10.40;99.90;;;;;;5046913;28;20398;-70
2023/12/24 07:44:31;;;;;;;14.45;7.75;;;10.40;99.90;;;;;;5045329;28;20064;-75
2023/12/24 07:46:57;;;;;;;16.15;8.32;;;10.40;99.90;;;;;;5046295;28;20049;-71
2023/12/24 07:49:22;;;;;;;10.52;3.92;;;10.40;99.90;;;;;;5044703;28;20091;-78
2023/12/24 07:51:48;;;;;;;3.47;2.30;;;10.50;99.90;;;;;;5044604;28;20107;-76
2023/12/24 07:54:14;;;;;;;9.25;2.95;;;10.40;99.90;;;;;;5037119;28;20042;-76
2023/12/24 07:56:40;;;;;;;8.80;2.85;;;10.40;99.90;;;;;;5039750;28;20182;-76
2023/12/24 07:59:05;;;;;;;10.93;3.25;;;10.40;99.90;;;;;;5038987;28;20037;-76
2023/12/24 08:01:31;;;;;;;5.35;3.13;;;10.40;99.90;;;;;;5036588;28;20602;-78
2023/12/24 08:03:57;;;;;;;10.90;6.20;;;10.40;99.90;;;;;;5049594;28;20116;-80
2023/12/24 08:06:22;;;;;;;7.72;2.67;;;10.50;99.90;;;;;;5046216;28;20079;-77
2023/12/24 08:08:48;;;;;;;4.60;2.50;;;10.50;99.90;;;;;;5038718;28;20051;-78
2023/12/24 08:11:14;;;;;;;10.05;2.78;;;10.50;99.90;;;;;;5036772;28;20098;-77
2023/12/24 08:13:39;;;;;;;6.70;2.40;;;10.50;99.90;;;;;;5041953;28;20056;-77
2023/12/24 08:16:06;;;;;;;11.73;3.38;;;10.50;99.90;;;;;;5045054;28;20056;-77
2023/12/24 08:18:32;;;;;;;8.88;2.75;;;10.50;99.90;;;;;;5043905;28;20053;-76
2023/12/24 08:20:57;;;;;;;10.00;3.40;;;10.50;99.90;;;;;;5039062;28;20386;-77
2023/12/24 08:23:23;;;;;;;7.15;3.00;;;10.50;99.90;;;;;;5048048;28;20037;-76
2023/12/24 08:25:49;;;;;;;13.13;3.72;;;10.50;99.90;;;;;;5043775;28;20045;-77
2023/12/24 08:28:14;;;;;;;7.28;3.00;;;10.50;99.90;;;;;;5039493;28;20225;-80
2023/12/24 08:30:40;;;;;;;12.68;3.47;;;10.50;99.90;;;;;;5047520;28;20075;-76
2023/12/24 08:33:06;;;;;;;8.30;2.95;;;10.60;99.90;;;;;;5044563;28;20144;-75
2023/12/24 08:35:35;;;;;;;11.25;3.92;;;10.60;99.90;;;;;;5041385;28;20052;-75
2023/12/24 08:38:01;;;;;;;12.95;3.33;;;10.60;99.90;;;;;;5046571;28;20401;-75
2023/12/24 08:40:28;;;;;;;10.02;2.83;;;10.60;99.90;;;;;;5048717;28;20052;-75
2023/12/24 08:42:54;;;;;;;9.65;3.55;;;10.60;99.90;;;;;;5036813;28;20049;-75
2023/12/24 08:45:23;;;;;;;11.55;3.20;;;10.60;99.90;;;;;;5044121;28;20049;-75
2023/12/24 08:47:49;;;;;;;14.38;3.88;;;10.60;99.90;;;;;;5030557;28;20045;-75
2023/12/24 08:50:16;;;;;;;8.60;3.55;;;10.60;99.90;;;;;;5045168;28;20071;-75
2023/12/24 08:52:41;;;;;;;10.50;3.83;;;10.60;99.90;;;;;;5037716;28;20056;-75
2023/12/24 08:55:07;;;;;;;7.97;3.20;;;10.60;99.90;;;;;;5043284;28;20060;-75
2023/12/24 08:57:33;;;;;;;10.48;2.97;;;10.70;99.90;;;;;;5041908;28;20566;-75
2023/12/24 08:59:59;;;;;;;4.65;2.55;;;10.70;99.90;;;;;;5033021;28;20046;-75
2023/12/24 09:02:25;;;;;;;12.07;2.88;;;10.70;99.90;;;;;;5043906;28;20098;-75
2023/12/24 09:04:50;;;;;;;5.45;2.40;;;10.70;99.90;;;;;;5045350;28;20057;-75
2023/12/24 09:07:17;;;;;;;7.30;2.42;;;10.70;99.90;;;;;;5045603;28;21042;-75
2023/12/24 09:09:43;;;;;;;7.43;3.10;;;10.70;99.90;;;;;;5037438;28;20091;-76
2023/12/24 09:12:08;;;;;;;6.20;2.50;;;10.70;99.90;;;;;;5044267;28;20080;-75
2023/12/24 09:14:35;;;;;;;7.00;1.92;;;10.80;99.90;;;;;;5035292;28;20120;-75
2023/12/24 09:17:00;;;;;;;6.38;2.25;;;10.80;99.90;;;;;;5033801;28;20045;-75
2023/12/24 09:19:26;;;;;;;12.57;2.67;;;10.80;99.90;;;;;;5038215;28;20070;-75
2023/12/24 09:21:51;;;;;;;7.63;2.55;;;10.80;99.90;;;;;;5044602;28;20055;-75
2023/12/24 09:24:17;;;;;;;7.72;2.13;;;10.80;99.90;;;;;;5043778;28;20041;-75
2023/12/24 09:26:43;;;;;;;8.65;2.63;;;10.80;99.90;;;;;;5042976;28;20053;-75
2023/12/24 09:29:11;;;;;;;8.40;2.28;;;10.80;99.90;;;;;;5038917;28;20083;-75
2023/12/24 09:31:38;;;;;;;4.82;1.77;;;10.90;99.90;;;;;;5039067;28;20128;-74
2023/12/24 09:34:04;;;;;;;6.47;2.17;;;10.90;99.90;;;;;;5036766;28;20037;-75
2023/12/24 09:36:30;;;;;;;4.72;1.67;;;10.90;99.90;;;;;;5043325;28;20052;-75
2023/12/24 09:38:55;;;;;;;4.95;1.98;;;10.90;99.90;;;;;;5045096;28;20052;-75
2023/12/24 09:41:21;;;;;;;7.07;1.90;;;10.90;99.90;;;;;;5032023;28;20527;-75
2023/12/24 09:43:47;;;;;;;6.63;1.67;;;10.90;99.90;;;;;;5031409;28;20487;-75
2023/12/24 09:46:12;;;;;;;4.57;1.80;;;10.90;99.90;;;;;;5041707;28;20064;-75
2023/12/24 09:48:38;;;;;;;6.45;1.92;;;11.00;99.90;;;;;;5045215;28;20067;-75
2023/12/24 09:51:06;;;;;;;5.05;1.50;;;11.00;99.90;;;;;;5047099;28;20431;-75
2023/12/24 09:53:32;;;;;;;6.95;1.90;;;11.00;99.90;;;;;;5044439;28;20444;-75
2023/12/24 09:55:58;;;;;;;8.45;2.17;;;11.00;99.90;;;;;;5039694;28;20076;-75
2023/12/24 09:58:24;;;;;;;4.93;1.80;;;11.00;99.90;;;;;;5048144;28;20044;-75
2023/12/24 10:00:50;;;;;;;6.22;1.63;;;11.00;99.90;;;;;;5047718;28;20465;-75
2023/12/24 10:03:15;;;;;;;8.10;2.05;;;11.00;99.90;;;;;;5040700;28;20391;-75
2023/12/24 10:06:03;;;;;;;6.47;2.05;;;11.00;99.90;;;;;;5036068;28;20155;-74
2023/12/24 10:08:30;;;;;;;7.40;1.98;;;11.00;99.90;;;;;;5041438;28;20461;-74
2023/12/24 10:10:56;;;;;;;8.10;2.00;;;11.10;99.90;;;;;;5040688;28;20060;-75
2023/12/24 10:13:22;;;;;;;5.80;2.00;;;11.10;99.90;;;;;;5037831;28;20048;-76
2023/12/24 10:16:05;;;;;;;6.95;2.30;;;11.10;99.90;;;;;;5034764;28;20051;-76
2023/12/24 10:18:31;;;;;;;7.65;2.20;;;11.10;99.90;;;;;;5064214;28;20083;-77
2023/12/24 10:21:18;;;;;;;6.65;2.53;;;11.10;99.90;;;;;;5049217;28;20041;-76
2023/12/24 10:23:44;;;;;;;9.25;2.22;;;11.10;99.90;;;;;;5048821;28;20439;-79
2023/12/24 10:26:11;;;;;;;8.43;2.90;;;11.10;99.90;;;;;;5052699;28;20094;-78
2023/12/24 10:28:51;;;;;;;12.48;2.53;;;11.20;99.90;;;;;;5044953;28;20041;-76
2023/12/24 10:31:17;;;;;;;13.13;3.10;;;11.20;99.90;;;;;;5047782;28;20176;-76
2023/12/24 10:33:44;;;;;;;9.98;2.40;;;11.20;99.90;;;;;;5042690;28;20522;-77
2023/12/24 10:36:09;;;;;;;8.98;2.47;;;11.20;99.90;;;;;;5048151;28;20523;-79
2023/12/24 10:38:36;;;;;;;7.38;2.50;;;11.20;99.90;;;;;;5049321;28;20049;-77
2023/12/24 10:41:03;;;;;;;11.43;2.78;;;11.20;99.90;;;;;;5049479;28;20045;-76
2023/12/24 10:43:29;;;;;;;8.68;2.40;;;11.20;99.90;;;;;;5041748;28;20083;-78
2023/12/24 10:45:55;;;;;;;8.23;2.38;;;11.20;99.90;;;;;;5048078;28;20439;-79
2023/12/24 10:48:21;;;;;;;8.13;2.35;;;11.20;99.90;;;;;;5046972;28;20492;-78
2023/12/24 10:50:47;;;;;;;5.75;2.45;;;11.30;99.90;;;;;;5048794;28;20051;-79
2023/12/24 10:53:15;;;;;;;5.93;1.88;;;11.30;99.90;;;;;;5043057;28;20040;-77
2023/12/24 10:55:54;;;;;;;7.70;1.95;;;11.30;99.90;;;;;;5035768;28;20049;-77
2023/12/24 10:58:27;;;;;;;8.77;2.17;;;11.30;99.90;;;;;;5044336;28;20049;-77
2023/12/24 11:00:53;;;;;;;7.88;2.47;;;11.30;99.90;;;;;;5049527;28;20084;-77
2023/12/24 11:03:44;;;;;;;7.90;2.17;;;11.30;99.90;;;;;;5050002;28;20508;-75
2023/12/24 11:06:10;;;;;;;9.88;2.47;;;11.30;99.90;;;;;;5051039;28;20052;-75
2023/12/24 11:08:36;;;;;;;4.40;2.30;;;11.30;99.90;;;;;;5046011;28;20382;-78
2023/12/24 11:11:04;;;;;;;7.35;2.80;;;11.40;99.90;;;;;;5047670;28;20056;-74
2023/12/24 11:13:33;;;;;;;;;;;11.40;99.90;;;;;;5047043;28;20404;-75
2023/12/24 11:15:59;;;;;;;9.65;2.67;;;11.40;99.90;;;;;;5049085;28;19967;-75
2023/12/24 11:18:45;;;;;;;8.52;2.70;;;11.50;99.90;;;;;;5045694;28;20397;-76
2023/12/24 11:21:19;;;;;;;9.73;2.58;;;11.50;99.90;;;;;;5045264;28;20389;-74
2023/12/24 11:24:14;;;;;;;8.90;2.50;;;11.60;99.90;;;;;;5045443;28;20135;-73
2023/12/24 11:26:53;;;;;;;10.68;2.90;;;11.70;99.90;;;;;;5043657;28;20600;-77
2023/12/24 11:29:42;;;;;;;7.88;2.78;;;11.70;99.90;;;;;;5026084;28;20049;-75
2023/12/24 11:32:26;;;;;;;9.82;2.80;;;11.70;99.90;;;;;;5042335;28;20499;-75
2023/12/24 11:34:53;;;;;;;7.47;2.53;;;11.70;99.90;;;;;;5030810;28;20042;-80
2023/12/24 11:37:34;;;;;;;12.95;2.97;;;11.80;99.90;;;;;;5040587;28;20107;-76
2023/12/24 11:40:04;;;;;;;10.15;2.95;;;11.80;99.90;;;;;;5038865;28;20041;-74
2023/12/24 11:42:47;;;;;;;10.48;2.95;;;11.80;99.90;;;;;;5041424;28;20050;-74
2023/12/24 11:45:21;;;;;;;10.38;3.13;;;11.80;99.90;;;;;;5040877;28;20044;-80
2023/12/24 11:47:47;;;;;;;9.93;3.08;;;11.80;99.90;;;;;;5043693;28;20049;-76
2023/12/24 11:50:13;;;;;;;6.90;2.47;;;11.90;99.90;;;;;;5038461;28;20048;-78
2023/12/24 11:52:47;;;;;;;6.80;2.53;;;11.90;99.90;;;;;;5031275;28;20064;-78
2023/12/24 11:55:16;;;;;;;12.13;2.97;;;11.90;99.90;;;;;;5041015;28;20090;-78
2023/12/24 11:57:42;;;;;;;14.32;3.20;;;11.90;99.90;;;;;;5043129;28;20067;-77
2023/12/24 12:00:13;;;;;;;9.73;2.50;;;12.00;99.90;;;;;;5044010;28;20057;-77
2023/12/24 12:02:42;;;;;;;9.77;2.92;;;12.00;99.90;;;;;;5039930;28;20691;-82
2023/12/24 12:05:09;;;;;;;8.77;2.50;;;12.00;99.90;;;;;;5046328;28;20049;-76
2023/12/24 12:07:35;;;;;;;12.05;3.25;;;12.00;99.90;;;;;;5046835;28;20650;-75
2023/12/24 12:10:02;;;;;;;10.67;3.07;;;12.00;99.90;;;;;;5047403;28;20045;-74
2023/12/24 12:12:28;;;;;;;14.60;3.20;;;12.00;99.90;;;;;;5031735;28;20047;-76
2023/12/24 12:14:54;;;;;;;13.75;3.13;;;12.00;99.90;;;;;;5035723;28;20116;-75
2023/12/24 12:17:19;;;;;;;7.95;2.90;;;12.00;99.90;;;;;;5040992;28;20037;-75
2023/12/24 12:19:45;;;;;;;7.30;2.47;;;12.00;99.90;;;;;;5041892;28;20055;-83
2023/12/24 12:22:11;;;;;;;7.10;2.13;;;12.00;99.90;;;;;;5037862;28;20758;-80
2023/12/24 12:24:36;;;;;;;7.53;2.65;;;12.00;99.90;;;;;;5048307;28;20067;-78
2023/12/24 12:27:02;;;;;;;15.00;5.07;;;12.10;99.90;;;;;;5046980;28;20041;-77
2023/12/24 12:29:28;;;;;;;8.07;3.25;;;12.10;99.90;;;;;;5041287;28;20051;-75
2023/12/24 12:31:57;;;;;;;9.98;2.78;;;12.10;99.90;;;;;;5035551;28;20037;-78
2023/12/24 12:34:23;;;;;;;9.68;3.35;;;12.10;99.90;;;;;;5047266;28;20661;-78
2023/12/24 12:36:50;;;;;;;6.65;2.50;;;12.10;99.90;;;;;;5037936;28;20045;-78
2023/12/24 12:39:16;;;;;;;7.00;2.72;;;12.10;99.90;;;;;;5047176;28;20057;-76
2023/12/24 12:41:42;;;;;;;9.20;2.87;;;12.10;99.90;;;;;;5044189;28;20049;-76
2023/12/24 12:44:08;;;;;;;9.02;2.42;;;12.10;99.90;;;;;;5048705;28;20287;-76
2023/12/24 12:46:33;;;;;;;10.02;2.38;;;12.10;99.90;;;;;;5045294;28;20056;-75
2023/12/24 12:48:59;;;;;;;4.07;1.85;;;12.10;99.90;;;;;;5040409;28;20110;-74